Time;durP1;ratioP1;P1;durP2;ratioP2;P2;SDS_P1;SDS_P2;PMS_P1;PMS_P2;Temp;Humidity;BMP_temperature;BMP_pressure;BME280_temperature;BME280_humidity;BME280_pressure;Samples;Min_cycle;Max_cycle;Signal;HPM_P1;HPM_P2
2020/12/08 00:01:58;;;;;;;24.83;14.10;;;;;;;-1.89;68.57;100011.43;126448;1101;104458;-77
2020/12/08 00:04:25;;;;;;;21.37;14.25;;;;;;;-1.91;69.21;100013.11;126422;1096;104487;-78
2020/12/08 00:06:52;;;;;;;21.40;12.60;;;;;;;-1.93;68.43;100025.01;126450;1101;104538;-78
2020/12/08 00:09:19;;;;;;;21.47;12.93;;;;;;;-1.97;69.03;100007.92;126399;1096;104374;-77
2020/12/08 00:11:47;;;;;;;23.67;14.10;;;;;;;-1.96;69.15;100019.86;126419;1100;104430;-77
2020/12/08 00:14:15;;;;;;;26.37;14.37;;;;;;;-1.97;68.93;100005.36;126397;1096;104963;-77
2020/12/08 00:16:42;;;;;;;22.43;14.40;;;;;;;-1.98;68.79;100007.87;126402;1100;104522;-79
2020/12/08 00:19:10;;;;;;;22.40;13.13;;;;;;;-1.99;68.58;100014.67;126416;1093;104493;-77
2020/12/08 00:21:39;;;;;;;20.17;13.03;;;;;;;-1.99;69.26;100019.78;126416;1096;104481;-77
2020/12/08 00:24:07;;;;;;;25.43;14.93;;;;;;;-1.99;69.05;100013.81;126465;1097;104427;-77
2020/12/08 00:26:35;;;;;;;20.90;13.03;;;;;;;-2.04;68.90;100026.53;126431;1097;104560;-77
2020/12/08 00:29:03;;;;;;;22.33;13.70;;;;;;;-2.08;69.44;100055.44;126490;1100;104481;-77
2020/12/08 00:31:30;;;;;;;24.73;13.83;;;;;;;-2.10;68.74;100030.70;126452;1097;104454;-77
2020/12/08 00:33:58;;;;;;;24.73;14.77;;;;;;;-2.12;69.10;100007.69;126417;1093;104423;-77
2020/12/08 00:36:26;;;;;;;26.23;14.70;;;;;;;-2.14;69.05;100022.14;126438;1100;105443;-77
2020/12/08 00:38:54;;;;;;;20.73;12.90;;;;;;;-2.15;69.09;100016.17;126376;1097;104490;-76
2020/12/08 00:41:22;;;;;;;24.23;13.07;;;;;;;-2.13;69.50;100011.08;126361;1100;104497;-76
2020/12/08 00:43:51;;;;;;;24.20;13.30;;;;;;;-2.15;68.92;100034.06;126452;1099;104465;-77
2020/12/08 00:46:19;;;;;;;22.67;13.43;;;;;;;-2.12;68.97;100029.83;126400;1100;104486;-77
2020/12/08 00:48:48;;;;;;;24.67;12.73;;;;;;;-2.12;69.49;100012.80;126486;1100;104397;-77
2020/12/08 00:51:17;;;;;;;20.47;12.93;;;;;;;-2.11;68.77;100064.76;126422;1100;104634;-77
2020/12/08 00:53:44;;;;;;;19.97;12.33;;;;;;;-2.15;68.64;100025.53;126397;1093;104352;-76
2020/12/08 00:56:14;;;;;;;24.50;13.27;;;;;;;-2.17;68.89;100034.84;126466;1100;104391;-77
2020/12/08 00:58:45;;;;;;;21.10;13.77;;;;;;;-2.22;69.05;100033.92;126398;1097;104477;-77
2020/12/08 01:01:13;;;;;;;23.40;14.13;;;;;;;-2.23;69.70;100035.61;126522;1093;104404;-77
2020/12/08 01:03:40;;;;;;;20.50;13.00;;;;;;;-2.22;69.25;100031.36;126434;1099;104426;-77
2020/12/08 01:06:09;;;;;;;19.80;12.50;;;;;;;-2.23;69.53;100032.20;126407;1096;104397;-78
2020/12/08 01:08:37;;;;;;;19.27;12.93;;;;;;;-2.26;69.06;100045.79;126559;1100;104503;-76
2020/12/08 01:11:06;;;;;;;20.27;12.30;;;;;;;-2.28;69.16;100026.17;126459;1097;104535;-78
2020/12/08 01:13:35;;;;;;;21.00;12.13;;;;;;;-2.28;69.76;100038.94;126489;1093;104423;-77
2020/12/08 01:16:05;;;;;;;18.80;11.37;;;;;;;-2.29;69.63;100039.78;126460;1096;104494;-77
2020/12/08 01:18:32;;;;;;;19.60;11.47;;;;;;;-2.28;69.61;100032.13;126466;1101;103753;-78
2020/12/08 01:21:00;;;;;;;21.20;11.30;;;;;;;-2.25;69.05;100018.55;126412;1100;104372;-77
2020/12/08 01:23:28;;;;;;;22.03;12.20;;;;;;;-2.21;69.12;100020.30;126531;1098;104363;-77
2020/12/08 01:25:56;;;;;;;20.90;11.83;;;;;;;-2.20;68.93;100024.58;126448;1101;104962;-77
2020/12/08 01:28:23;;;;;;;21.33;11.90;;;;;;;-2.19;69.18;100021.19;126364;1093;104423;-77
2020/12/08 01:30:52;;;;;;;23.93;12.23;;;;;;;-2.18;68.72;100022.91;126386;1101;104559;-77
2020/12/08 01:33:19;;;;;;;20.27;11.93;;;;;;;-2.18;68.03;100020.34;126419;1093;104424;-78
2020/12/08 01:35:46;;;;;;;20.53;11.93;;;;;;;-2.18;67.99;100020.34;126589;1096;104423;-77
2020/12/08 01:38:14;;;;;;;20.67;11.60;;;;;;;-2.19;68.23;100018.63;126430;1101;104945;-77
2020/12/08 01:40:42;;;;;;;21.70;12.37;;;;;;;-2.22;67.69;100021.14;126416;1096;104420;-78
2020/12/08 01:43:09;;;;;;;20.20;10.23;;;;;;;-2.21;68.47;100018.61;126432;1093;104523;-78
2020/12/08 01:45:37;;;;;;;18.23;10.77;;;;;;;-2.21;67.78;100044.16;126428;1096;104222;-77
2020/12/08 01:48:05;;;;;;;20.60;11.53;;;;;;;-2.21;67.98;100039.05;126412;1100;105787;-77
2020/12/08 01:50:32;;;;;;;25.30;11.10;;;;;;;-2.21;67.31;100022.86;126403;1098;104586;-77
2020/12/08 01:53:00;;;;;;;21.90;11.40;;;;;;;-2.22;67.25;100013.48;126430;1101;103268;-77
2020/12/08 01:55:29;;;;;;;19.27;11.57;;;;;;;-2.24;67.62;100022.81;126459;1096;104500;-77
2020/12/08 01:57:58;;;;;;;19.73;10.93;;;;;;;-2.22;68.27;100000.70;126398;1101;104647;-77
2020/12/08 02:00:31;;;;;;;18.93;11.40;;;;;;;-2.21;67.38;100007.53;126439;1100;104403;-77
2020/12/08 02:02:58;;;;;;;20.50;12.13;;;;;;;-2.20;67.52;100007.55;126430;1101;104490;-78
2020/12/08 02:05:36;;;;;;;20.40;11.47;;;;;;;-2.17;68.15;99999.07;126447;1095;104488;-77
2020/12/08 02:08:03;;;;;;;22.70;12.73;;;;;;;-2.16;67.57;100004.20;126411;1100;104538;-78
2020/12/08 02:10:32;;;;;;;19.50;10.40;;;;;;;-2.16;67.06;100011.87;126456;1100;105658;-77
2020/12/08 02:13:00;;;;;;;19.30;11.50;;;;;;;-2.17;67.23;100016.95;126473;1093;104394;-78
2020/12/08 02:15:31;;;;;;;20.60;11.40;;;;;;;-2.20;66.99;100017.77;126521;1100;104432;-77
2020/12/08 02:17:59;;;;;;;18.73;10.60;;;;;;;-2.23;67.27;100021.98;126440;1100;104436;-77
2020/12/08 02:20:28;;;;;;;19.40;10.97;;;;;;;-2.23;67.07;100009.20;126434;1100;104535;-77
2020/12/08 02:22:56;;;;;;;20.20;11.07;;;;;;;-2.24;67.39;100033.89;126412;1097;104531;-77
2020/12/08 02:25:24;;;;;;;19.00;10.70;;;;;;;-2.22;67.11;100003.27;126409;1100;104409;-77
2020/12/08 02:27:52;;;;;;;19.37;11.37;;;;;;;-2.22;66.67;100009.23;126494;1097;104375;-77
2020/12/08 02:30:19;;;;;;;18.23;9.67;;;;;;;-2.21;67.42;100022.86;126415;1093;104234;-76
2020/12/08 02:32:46;;;;;;;19.67;10.65;;;;;;;-2.21;67.48;100015.20;126380;1095;104391;-78
2020/12/08 02:35:13;;;;;;;16.53;10.33;;;;;;;-2.20;66.47;100022.02;126412;1100;104452;-77
2020/12/08 02:37:40;;;;;;;19.27;10.73;;;;;;;-2.19;67.32;100016.08;126434;1093;105058;-77
2020/12/08 02:40:08;;;;;;;18.67;10.63;;;;;;;-2.17;67.60;100019.52;126455;1101;103382;-77
2020/12/08 02:42:36;;;;;;;18.47;10.83;;;;;;;-2.17;67.10;100052.72;126436;1097;104407;-76
2020/12/08 02:45:03;;;;;;;16.80;9.87;;;;;;;-2.16;66.74;100034.86;126381;1096;104430;-77
2020/12/08 02:47:32;;;;;;;17.25;10.30;;;;;;;-2.16;67.09;100023.78;126425;1096;104535;-77
2020/12/08 02:50:00;;;;;;;19.27;10.77;;;;;;;-2.16;66.28;100026.34;126419;1094;104366;-77
2020/12/08 02:52:27;;;;;;;17.57;10.32;;;;;;;-2.19;66.55;100031.41;126406;1096;104395;-77
2020/12/08 02:54:54;;;;;;;17.87;10.63;;;;;;;-2.20;66.39;100030.55;126462;1093;104500;-77
2020/12/08 02:57:21;;;;;;;16.87;9.67;;;;;;;-2.21;67.33;100043.30;126382;1101;104385;-77
2020/12/08 02:59:49;;;;;;;17.13;9.93;;;;;;;-2.22;66.92;100032.22;126341;1096;104542;-77
2020/12/08 03:02:20;;;;;;;18.37;10.53;;;;;;;-2.22;66.75;100036.47;126361;1101;104362;-77
2020/12/08 03:04:49;;;;;;;18.93;10.60;;;;;;;-2.22;67.32;100052.66;126406;1093;104456;-77
2020/12/08 03:07:17;;;;;;;18.07;10.73;;;;;;;-2.21;67.01;100028.83;126362;1102;104398;-77
2020/12/08 03:09:45;;;;;;;18.87;10.33;;;;;;;-2.21;67.69;100012.64;126480;1101;104448;-77
2020/12/08 03:12:13;;;;;;;16.77;10.23;;;;;;;-2.21;67.22;100028.83;126476;1096;104368;-77
2020/12/08 03:14:43;;;;;;;17.53;10.07;;;;;;;-2.17;67.05;100034.84;126460;1093;104465;-77
2020/12/08 03:17:12;;;;;;;15.93;10.10;;;;;;;-2.17;67.19;100012.70;126527;1100;104850;-77
2020/12/08 03:19:42;;;;;;;16.23;9.50;;;;;;;-2.16;67.32;100009.31;126422;1097;104401;-78
2020/12/08 03:22:09;;;;;;;14.43;9.50;;;;;;;-2.15;67.50;99995.73;126432;1096;104558;-77
2020/12/08 03:24:44;;;;;;;17.30;9.25;;;;;;;-2.12;66.93;100017.91;126452;1093;104513;-77
2020/12/08 03:27:13;;;;;;;17.93;9.30;;;;;;;-2.10;67.55;100016.23;126441;1096;104516;-77
2020/12/08 03:29:41;;;;;;;19.00;9.37;;;;;;;-2.07;67.09;100006.05;126457;1100;104352;-76
2020/12/08 03:32:11;;;;;;;16.03;9.13;;;;;;;-2.05;67.04;100027.37;126462;1093;105881;-77
2020/12/08 03:34:38;;;;;;;18.27;8.87;;;;;;;-2.04;66.88;100000.98;126462;1093;104395;-77
2020/12/08 03:37:06;;;;;;;17.10;8.97;;;;;;;-2.07;66.64;100021.38;126520;1097;105054;-76
2020/12/08 03:39:33;;;;;;;16.70;9.10;;;;;;;-2.08;66.80;100021.36;126445;1101;104474;-78
2020/12/08 03:42:04;;;;;;;14.45;8.48;;;;;;;-2.08;67.57;100006.89;126431;1096;101961;-78
2020/12/08 03:44:33;;;;;;;14.90;9.10;;;;;;;-2.07;67.34;100000.94;126441;1097;104457;-78
2020/12/08 03:47:05;;;;;;;13.37;8.43;;;;;;;-2.05;66.85;100004.38;126437;1101;104375;-77
2020/12/08 03:49:33;;;;;;;15.57;8.17;;;;;;;-2.05;67.45;100003.52;126438;1097;104529;-77
2020/12/08 03:52:02;;;;;;;12.63;8.53;;;;;;;-2.05;67.23;100014.59;126416;1096;104497;-78
2020/12/08 03:54:29;;;;;;;14.30;8.37;;;;;;;-2.04;67.55;100000.13;126451;1098;104523;-77
2020/12/08 03:56:56;;;;;;;15.40;8.88;;;;;;;-2.03;66.94;100015.47;126496;1100;104624;-78
2020/12/08 03:59:24;;;;;;;13.40;8.23;;;;;;;-2.01;67.13;100006.13;126435;1097;104599;-77
2020/12/08 04:01:59;;;;;;;14.70;8.40;;;;;;;-1.99;66.62;100024.04;126431;1101;104391;-77
2020/12/08 04:04:26;;;;;;;11.80;7.20;;;;;;;-1.99;67.60;100004.45;126457;1093;104365;-78
2020/12/08 04:06:53;;;;;;;13.43;8.00;;;;;;;-2.01;66.41;100006.13;126363;1097;104465;-78
2020/12/08 04:09:21;;;;;;;13.03;7.67;;;;;;;-2.00;67.54;100010.41;126432;1096;104472;-76
2020/12/08 04:11:49;;;;;;;15.03;8.37;;;;;;;-1.97;67.00;100007.06;126409;1098;104538;-77
2020/12/08 04:14:16;;;;;;;17.57;7.90;;;;;;;-1.96;66.76;99996.00;126519;1097;104385;-77
2020/12/08 04:16:44;;;;;;;12.70;7.50;;;;;;;-1.95;67.06;100006.23;126482;1100;104477;-79
2020/12/08 04:19:16;;;;;;;12.43;7.13;;;;;;;-1.95;66.12;100021.58;126446;1096;104437;-77
2020/12/08 04:21:44;;;;;;;13.23;7.77;;;;;;;-1.92;66.29;100010.53;126390;1100;104526;-77
2020/12/08 04:24:16;;;;;;;11.27;7.17;;;;;;;-1.92;66.95;100006.28;126446;1093;104384;-77
2020/12/08 04:26:45;;;;;;;12.37;6.77;;;;;;;-1.93;66.00;100002.01;126437;1096;104419;-77
2020/12/08 04:29:16;;;;;;;13.30;8.03;;;;;;;-1.90;66.23;100007.16;126510;1096;104442;-76
2020/12/08 04:31:46;;;;;;;11.73;7.97;;;;;;;-1.88;66.57;100020.81;126525;1101;104379;-77
2020/12/08 04:34:13;;;;;;;12.20;7.25;;;;;;;-1.87;66.59;99994.41;126442;1096;104502;-77
2020/12/08 04:36:40;;;;;;;11.77;7.47;;;;;;;-1.88;66.04;100028.48;126465;1097;104497;-78
2020/12/08 04:39:07;;;;;;;12.40;6.80;;;;;;;-1.88;66.49;100048.07;126431;1093;104485;-77
2020/12/08 04:41:35;;;;;;;10.80;6.47;;;;;;;-1.88;65.91;100022.52;126425;1101;104467;-78
2020/12/08 04:44:04;;;;;;;10.77;6.37;;;;;;;-1.88;65.71;100033.59;126541;1093;104394;-78
2020/12/08 04:46:32;;;;;;;12.03;6.57;;;;;;;-1.86;65.84;100025.95;126403;1097;104436;-77
2020/12/08 04:49:00;;;;;;;11.73;6.53;;;;;;;-1.86;65.97;100018.27;126506;1093;104653;-77
2020/12/08 04:51:27;;;;;;;10.80;6.20;;;;;;;-1.85;65.54;100038.74;126380;1101;105054;-77
2020/12/08 04:53:54;;;;;;;10.90;6.60;;;;;;;-1.86;65.77;100039.59;126373;1093;104427;-77
2020/12/08 04:56:22;;;;;;;11.77;6.73;;;;;;;-1.89;65.38;100031.88;126461;1093;102762;-77
2020/12/08 04:58:49;;;;;;;13.13;7.50;;;;;;;-1.90;66.14;100022.49;126436;1093;104416;-77
2020/12/08 05:01:26;;;;;;;11.33;6.97;;;;;;;-1.90;66.13;100017.38;126426;1101;104382;-77
2020/12/08 05:04:00;;;;;;;11.13;6.67;;;;;;;-1.92;65.68;100053.98;126455;1100;104361;-77
2020/12/08 05:06:29;;;;;;;10.30;6.27;;;;;;;-1.92;66.12;100036.09;126417;1097;104263;-77
2020/12/08 05:09:09;;;;;;;9.97;5.93;;;;;;;-1.93;65.86;100032.67;126438;1095;104529;-77
2020/12/08 05:11:37;;;;;;;10.77;6.60;;;;;;;-1.92;65.48;100043.76;126313;1096;104402;-78
2020/12/08 05:14:06;;;;;;;10.30;6.53;;;;;;;-1.93;66.16;100027.56;126366;1093;104411;-77
2020/12/08 05:16:33;;;;;;;11.97;6.17;;;;;;;-1.96;66.10;100016.45;126380;1100;104469;-77
2020/12/08 05:19:10;;;;;;;10.35;6.70;;;;;;;-1.97;65.72;100019.84;126468;1100;104446;-77
2020/12/08 05:21:50;;;;;;;10.43;6.77;;;;;;;-1.96;65.82;100024.11;126397;1093;104433;-77
2020/12/08 05:24:28;;;;;;;10.10;6.50;;;;;;;-1.96;66.36;100029.22;126426;1093;104611;-77
2020/12/08 05:26:58;;;;;;;9.63;6.40;;;;;;;-1.98;66.51;100016.39;126467;1100;104634;-77
2020/12/08 05:29:27;;;;;;;13.63;7.27;;;;;;;-1.98;65.90;100039.39;126475;1100;104522;-77
2020/12/08 05:31:55;;;;;;;17.73;6.73;;;;;;;-1.97;66.65;100013.03;126527;1096;104443;-77
2020/12/08 05:34:24;;;;;;;9.70;6.37;;;;;;;-1.97;66.55;100033.48;126445;1096;104421;-77
2020/12/08 05:36:54;;;;;;;12.80;7.80;;;;;;;-1.98;65.91;100024.06;126478;1093;104394;-76
2020/12/08 05:39:23;;;;;;;20.40;7.00;;;;;;;-1.98;65.84;100024.06;126408;1093;104590;-76
2020/12/08 05:41:50;;;;;;;10.90;6.43;;;;;;;-1.99;66.54;100019.78;126435;1097;104478;-78
2020/12/08 05:44:23;;;;;;;10.43;6.70;;;;;;;-1.98;66.08;100031.73;126429;1100;104923;-77
2020/12/08 05:46:52;;;;;;;10.17;6.23;;;;;;;-1.99;65.91;100040.23;126491;1100;104407;-77
2020/12/08 05:49:20;;;;;;;9.33;6.47;;;;;;;-2.00;65.65;100033.41;126454;1100;104378;-77
2020/12/08 05:51:50;;;;;;;8.97;6.07;;;;;;;-2.00;65.80;100030.84;126392;1096;104477;-77
2020/12/08 05:54:21;;;;;;;12.10;6.60;;;;;;;-2.00;66.41;100020.63;126475;1099;104362;-78
2020/12/08 05:56:52;;;;;;;11.10;6.90;;;;;;;-1.98;66.02;100028.31;126406;1101;104888;-79
2020/12/08 05:59:27;;;;;;;10.83;6.70;;;;;;;-1.96;66.43;100019.00;126441;1097;104397;-77
2020/12/08 06:01:56;;;;;;;12.83;6.57;;;;;;;-1.95;66.17;100049.69;126486;1096;104471;-77
2020/12/08 06:04:23;;;;;;;10.00;6.57;;;;;;;-1.93;65.94;100030.12;126458;1096;104471;-77
2020/12/08 06:06:53;;;;;;;11.80;6.90;;;;;;;-1.91;66.16;100037.81;126419;1093;104382;-78
2020/12/08 06:09:30;;;;;;;15.47;6.90;;;;;;;-1.88;66.14;100030.18;126503;1100;104400;-78
2020/12/08 06:11:57;;;;;;;11.07;6.73;;;;;;;-1.87;65.96;100055.76;126521;1096;104355;-77
2020/12/08 06:14:31;;;;;;;9.47;6.17;;;;;;;-1.86;65.62;100061.73;126419;1100;102173;-78
2020/12/08 06:17:17;;;;;;;10.87;6.90;;;;;;;-1.86;65.61;100041.28;126365;1101;104529;-77
2020/12/08 06:19:44;;;;;;;11.13;7.13;;;;;;;-1.87;66.19;100048.09;126373;1101;104432;-77
2020/12/08 06:22:12;;;;;;;10.87;6.90;;;;;;;-1.89;65.68;100047.21;126446;1101;104480;-77
2020/12/08 06:24:54;;;;;;;10.60;7.00;;;;;;;-1.88;65.83;100061.71;126437;1100;104821;-77
2020/12/08 06:27:22;;;;;;;9.85;6.80;;;;;;;-1.89;65.54;100047.21;126419;1097;102755;-77
2020/12/08 06:29:54;;;;;;;10.93;6.97;;;;;;;-1.89;65.37;100057.44;126416;1096;104516;-76
2020/12/08 06:32:29;;;;;;;9.47;6.53;;;;;;;-1.89;66.04;100056.58;126400;1101;104515;-76
2020/12/08 06:35:10;;;;;;;10.33;7.30;;;;;;;-1.91;65.51;100059.11;126458;1101;104478;-77
2020/12/08 06:37:49;;;;;;;12.03;7.00;;;;;;;-1.88;66.23;100053.19;126425;1096;104426;-78
2020/12/08 06:40:18;;;;;;;10.73;7.30;;;;;;;-1.87;65.84;100055.76;126450;1093;104538;-78
2020/12/08 06:42:47;;;;;;;12.07;7.93;;;;;;;-1.87;65.65;100040.42;126366;1100;105796;-77
2020/12/08 06:45:17;;;;;;;11.70;7.40;;;;;;;-1.87;65.96;100052.34;126448;1100;104538;-77
2020/12/08 06:47:45;;;;;;;12.70;7.30;;;;;;;-1.86;65.33;100047.25;126455;1097;104551;-77
2020/12/08 06:50:25;;;;;;;14.20;7.37;;;;;;;-1.86;65.48;100044.70;126443;1096;104480;-77
2020/12/08 06:52:57;;;;;;;13.15;7.50;;;;;;;-1.83;65.84;100054.96;126426;1101;104481;-77
2020/12/08 06:55:26;;;;;;;12.67;7.43;;;;;;;-1.83;65.63;100042.17;126461;1101;104458;-78
2020/12/08 06:58:03;;;;;;;12.07;8.20;;;;;;;-1.82;65.81;100046.45;126478;1100;105587;-77
2020/12/08 07:00:31;;;;;;;10.90;8.17;;;;;;;-1.80;65.70;100050.72;126412;1096;104497;-78
2020/12/08 07:03:03;;;;;;;11.43;7.20;;;;;;;-1.79;65.63;100062.70;126444;1100;104404;-78
2020/12/08 07:05:34;;;;;;;11.77;8.17;;;;;;;-1.77;65.45;100061.02;126491;1100;104383;-77
2020/12/08 07:08:02;;;;;;;16.13;9.10;;;;;;;-1.76;65.58;100065.30;126587;1093;104782;-77
2020/12/08 07:10:30;;;;;;;13.97;8.10;;;;;;;-1.76;65.68;100063.59;126471;1100;104206;-76
2020/12/08 07:12:57;;;;;;;11.10;7.23;;;;;;;-1.75;65.30;100046.56;126452;1100;104452;-77
2020/12/08 07:15:26;;;;;;;10.03;6.80;;;;;;;-1.75;65.58;100064.45;126364;1101;104403;-77
2020/12/08 07:18:04;;;;;;;10.37;7.93;;;;;;;-1.75;65.85;100070.43;126372;1101;104445;-77
2020/12/08 07:20:32;;;;;;;14.73;7.30;;;;;;;-1.75;65.36;100113.03;126348;1094;104445;-77
2020/12/08 07:23:05;;;;;;;14.27;7.57;;;;;;;-1.75;65.38;100072.13;126467;1100;104468;-77
2020/12/08 07:25:34;;;;;;;12.23;7.07;;;;;;;-1.77;65.59;100069.55;126376;1096;104378;-77
2020/12/08 07:28:02;;;;;;;10.90;7.67;;;;;;;-1.77;65.93;100132.61;126455;1093;104576;-77
2020/12/08 07:30:31;;;;;;;13.63;8.63;;;;;;;-1.75;66.07;100074.69;126450;1100;104432;-78
2020/12/08 07:33:12;;;;;;;15.43;8.57;;;;;;;-1.73;66.18;100070.45;126432;1100;104442;-77
2020/12/08 07:35:44;;;;;;;11.83;7.80;;;;;;;-1.71;65.81;100071.33;126479;1100;104516;-76
2020/12/08 07:38:12;;;;;;;14.67;7.90;;;;;;;-1.72;66.18;100095.17;126493;1093;104468;-78
2020/12/08 07:40:41;;;;;;;13.17;8.23;;;;;;;-1.72;66.23;100097.73;126432;1100;104398;-77
2020/12/08 07:43:08;;;;;;;14.50;8.60;;;;;;;-1.74;65.95;100107.08;126474;1100;102913;-77
2020/12/08 07:45:45;;;;;;;13.90;8.33;;;;;;;-1.76;66.49;100095.97;126372;1100;104615;-78
2020/12/08 07:48:18;;;;;;;13.07;8.30;;;;;;;-1.78;65.99;100106.19;126392;1100;104372;-76
2020/12/08 07:50:46;;;;;;;12.67;7.90;;;;;;;-1.75;66.08;100105.36;126355;1096;104336;-77
2020/12/08 07:53:15;;;;;;;14.17;8.60;;;;;;;-1.75;65.84;100113.03;126555;1093;104848;-77
2020/12/08 07:55:44;;;;;;;14.13;8.33;;;;;;;-1.76;66.28;100119.84;126470;1100;104592;-77
2020/12/08 07:58:13;;;;;;;13.65;8.35;;;;;;;-1.78;65.91;100115.55;126453;1094;105913;-77
2020/12/08 08:00:40;;;;;;;15.77;7.87;;;;;;;-1.77;66.69;100096.81;126444;1100;104818;-77
2020/12/08 08:03:07;;;;;;;18.17;10.63;;;;;;;-1.77;65.74;100095.12;126486;1096;104398;-77
2020/12/08 08:05:35;;;;;;;14.30;9.10;;;;;;;-1.74;66.15;100099.41;126371;1100;104405;-77
2020/12/08 08:08:02;;;;;;;16.70;8.65;;;;;;;-1.75;65.06;100108.78;126368;1098;104507;-77
2020/12/08 08:10:29;;;;;;;11.83;6.57;;;;;;;-1.77;65.01;100076.36;126403;1100;104506;-78
2020/12/08 08:12:56;;;;;;;10.37;7.30;;;;;;;-1.79;65.11;100113.83;126430;1101;104394;-77
2020/12/08 08:15:24;;;;;;;13.47;7.43;;;;;;;-1.80;65.70;100122.30;126405;1100;104475;-78
2020/12/08 08:17:52;;;;;;;13.30;7.27;;;;;;;-1.79;65.76;100111.27;126420;1097;104509;-78
2020/12/08 08:20:20;;;;;;;12.07;7.83;;;;;;;-1.78;65.62;100106.19;126387;1097;104558;-78
2020/12/08 08:22:48;;;;;;;13.60;7.83;;;;;;;-1.79;65.41;100093.38;126355;1096;104196;-78
2020/12/08 08:25:15;;;;;;;14.93;8.23;;;;;;;-1.78;65.58;100097.66;126399;1093;104513;-77
2020/12/08 08:27:42;;;;;;;11.87;7.70;;;;;;;-1.78;65.48;100108.73;126405;1101;104922;-78
2020/12/08 08:30:10;;;;;;;14.83;8.67;;;;;;;-1.77;65.45;100112.16;126461;1100;104410;-78
2020/12/08 08:32:39;;;;;;;14.00;8.50;;;;;;;-1.78;65.91;100103.62;126350;1097;104782;-78
2020/12/08 08:35:07;;;;;;;17.93;9.57;;;;;;;-1.77;66.06;100109.59;126340;1097;104560;-78
2020/12/08 08:37:35;;;;;;;14.20;8.17;;;;;;;-1.75;65.58;100095.14;126402;1100;104432;-78
2020/12/08 08:40:02;;;;;;;14.30;8.20;;;;;;;-1.75;65.79;100090.02;126342;1100;104397;-78
2020/12/08 08:42:30;;;;;;;12.40;8.27;;;;;;;-1.76;65.84;100109.62;126391;1093;105115;-78
2020/12/08 08:44:58;;;;;;;13.43;8.57;;;;;;;-1.74;65.44;100107.08;126520;1093;104506;-78
2020/12/08 08:47:25;;;;;;;16.27;9.30;;;;;;;-1.73;65.96;100108.80;126374;1101;104515;-78
2020/12/08 08:49:52;;;;;;;13.58;8.33;;;;;;;-1.71;66.05;100102.87;126415;1093;103786;-77
2020/12/08 08:52:20;;;;;;;15.67;9.40;;;;;;;-1.71;65.71;100102.87;126383;1097;104995;-77
2020/12/08 08:54:48;;;;;;;12.73;8.50;;;;;;;-1.69;65.83;100111.41;126345;1097;104510;-78
2020/12/08 08:57:15;;;;;;;16.62;9.73;;;;;;;-1.67;65.29;100125.08;126441;1094;104502;-77
2020/12/08 08:59:43;;;;;;;17.50;9.77;;;;;;;-1.65;65.17;100102.09;126388;1096;104487;-77
2020/12/08 09:02:10;;;;;;;15.70;9.15;;;;;;;-1.65;65.24;100114.87;126397;1100;104480;-78
2020/12/08 09:04:50;;;;;;;17.00;9.33;;;;;;;-1.66;65.66;100106.34;126413;1093;104372;-78
2020/12/08 09:07:19;;;;;;;14.97;9.60;;;;;;;-1.63;65.46;100097.85;126385;1101;104410;-77
2020/12/08 09:09:46;;;;;;;16.20;9.40;;;;;;;-1.59;65.60;100104.75;126390;1096;104530;-77
2020/12/08 09:12:14;;;;;;;14.27;9.23;;;;;;;-1.56;65.09;100097.98;126396;1098;104401;-77
2020/12/08 09:14:41;;;;;;;14.13;8.80;;;;;;;-1.52;65.19;100109.11;126403;1100;104494;-77
2020/12/08 09:17:11;;;;;;;15.40;8.95;;;;;;;-1.50;65.27;100122.78;126432;1096;104391;-77
2020/12/08 09:19:38;;;;;;;17.40;8.50;;;;;;;-1.47;64.91;100132.19;126436;1098;104430;-77
2020/12/08 09:22:06;;;;;;;13.03;8.40;;;;;;;-1.46;65.55;100124.53;126351;1097;104530;-77
2020/12/08 09:24:34;;;;;;;14.70;9.37;;;;;;;-1.46;65.32;100133.91;126417;1094;104571;-76
2020/12/08 09:27:03;;;;;;;14.80;8.30;;;;;;;-1.45;64.90;100128.81;126445;1093;104999;-77
2020/12/08 09:29:31;;;;;;;13.77;8.67;;;;;;;-1.46;65.15;100128.78;126338;1101;104413;-77
2020/12/08 09:31:59;;;;;;;14.67;9.60;;;;;;;-1.46;65.35;100123.67;126520;1093;104407;-77
2020/12/08 09:34:27;;;;;;;17.53;10.20;;;;;;;-1.48;65.41;100110.86;126376;1101;104433;-78
2020/12/08 09:36:56;;;;;;;16.13;9.97;;;;;;;-1.48;65.29;100123.66;126414;1100;104269;-77
2020/12/08 09:39:25;;;;;;;17.10;9.53;;;;;;;-1.49;65.70;100119.38;126521;1100;104820;-77
2020/12/08 09:41:52;;;;;;;16.50;9.87;;;;;;;-1.49;65.79;100142.40;126420;1101;104435;-78
2020/12/08 09:44:20;;;;;;;16.57;9.20;;;;;;;-1.50;66.06;100130.45;126430;1100;104487;-77
2020/12/08 09:46:48;;;;;;;19.10;9.90;;;;;;;-1.50;65.78;100122.78;126383;1093;104502;-78
2020/12/08 09:49:16;;;;;;;19.33;9.07;;;;;;;-1.47;65.92;100125.37;126367;1093;104414;-77
2020/12/08 09:51:43;;;;;;;17.30;9.73;;;;;;;-1.45;66.11;100126.25;126352;1101;106434;-77
2020/12/08 09:54:10;;;;;;;17.35;9.93;;;;;;;-1.42;65.98;100123.77;126382;1100;104842;-78
2020/12/08 09:56:38;;;;;;;16.50;10.17;;;;;;;-1.39;65.91;100128.91;126526;1098;101916;-78
2020/12/08 09:59:06;;;;;;;19.57;10.47;;;;;;;-1.35;66.23;100127.25;126425;1093;104421;-77
2020/12/08 10:01:34;;;;;;;15.70;10.20;;;;;;;-1.34;65.89;100131.53;126417;1093;104487;-78
2020/12/08 10:04:01;;;;;;;15.97;10.80;;;;;;;-1.36;65.61;100149.42;126452;1093;104368;-78
2020/12/08 10:06:28;;;;;;;19.23;11.53;;;;;;;-1.38;65.83;100140.01;126351;1097;104423;-78
2020/12/08 10:08:56;;;;;;;17.73;11.90;;;;;;;-1.40;65.71;100139.98;126412;1100;104522;-77
2020/12/08 10:11:25;;;;;;;18.23;11.13;;;;;;;-1.40;66.54;100124.64;126416;1096;104497;-77
2020/12/08 10:13:53;;;;;;;19.77;11.63;;;;;;;-1.41;66.53;100122.06;126411;1101;104202;-78
2020/12/08 10:16:25;;;;;;;22.47;12.73;;;;;;;-1.42;66.05;100133.13;126485;1100;104494;-78
2020/12/08 10:18:52;;;;;;;19.80;12.10;;;;;;;-1.42;66.68;100121.20;126430;1100;104455;-78
2020/12/08 10:21:21;;;;;;;19.97;12.30;;;;;;;-1.41;66.43;100132.30;126445;1097;103808;-77
2020/12/08 10:23:50;;;;;;;22.07;12.57;;;;;;;-1.42;66.67;100122.91;126396;1100;104572;-78
2020/12/08 10:26:21;;;;;;;23.87;12.50;;;;;;;-1.41;66.66;100128.04;126423;1095;104379;-78
2020/12/08 10:28:49;;;;;;;21.13;12.73;;;;;;;-1.42;66.51;100116.09;126361;1100;104480;-78
2020/12/08 10:31:17;;;;;;;24.10;12.97;;;;;;;-1.43;67.27;100124.60;126460;1100;104580;-77
2020/12/08 10:33:46;;;;;;;25.23;12.77;;;;;;;-1.44;67.07;100125.41;126432;1101;104423;-78
2020/12/08 10:36:14;;;;;;;21.03;13.07;;;;;;;-1.45;67.33;100108.34;126410;1101;104491;-78
2020/12/08 10:38:41;;;;;;;24.80;13.93;;;;;;;-1.45;67.66;100100.67;126344;1101;105139;-78
2020/12/08 10:41:09;;;;;;;22.37;13.40;;;;;;;-1.45;67.11;100090.44;126445;1093;104509;-78
2020/12/08 10:43:36;;;;;;;22.13;13.60;;;;;;;-1.44;67.09;100104.95;126424;1094;104456;-79
2020/12/08 10:46:04;;;;;;;22.67;13.57;;;;;;;-1.43;67.41;100093.91;126428;1093;104526;-79
2020/12/08 10:48:32;;;;;;;24.67;14.13;;;;;;;-1.43;68.07;100106.70;126459;1100;104102;-78
2020/12/08 10:50:59;;;;;;;20.97;13.43;;;;;;;-1.42;67.74;100105.00;126389;1100;104743;-78
2020/12/08 10:53:26;;;;;;;20.37;12.23;;;;;;;-1.41;67.66;100105.02;126406;1096;104535;-78
2020/12/08 10:55:54;;;;;;;22.23;12.43;;;;;;;-1.39;67.48;100111.01;126398;1096;104389;-78
2020/12/08 10:58:22;;;;;;;23.10;12.40;;;;;;;-1.36;67.86;100080.34;126419;1100;104401;-78
2020/12/08 11:00:49;;;;;;;16.82;11.08;;;;;;;-1.34;67.68;100081.22;126365;1100;104529;-78
2020/12/08 11:03:16;;;;;;;20.37;12.87;;;;;;;-1.31;67.41;100062.48;126396;1093;104445;-78
2020/12/08 11:05:44;;;;;;;21.85;12.65;;;;;;;-1.29;67.77;100065.92;126442;1098;104457;-79
2020/12/08 11:08:11;;;;;;;24.23;14.23;;;;;;;-1.27;67.39;100085.56;126390;1093;104369;-79